createdAt,value
2017-09-12T00:02:20.384Z,15.40
2017-09-12T00:04:48.619Z,15.40
2017-09-12T00:07:16.100Z,15.40
2017-09-12T00:09:44.360Z,15.40
2017-09-12T00:12:11.852Z,15.40
2017-09-12T00:14:40.095Z,15.50
2017-09-12T00:17:07.599Z,15.50
2017-09-12T00:19:35.067Z,15.50
2017-09-12T00:22:02.553Z,15.50
2017-09-12T00:24:30.054Z,15.60
2017-09-12T00:26:58.296Z,15.60
2017-09-12T00:29:25.763Z,15.60
2017-09-12T00:31:53.340Z,15.60
2017-09-12T00:34:20.838Z,15.60
2017-09-12T00:36:48.309Z,15.60
2017-09-12T00:39:15.804Z,15.60
2017-09-12T00:41:43.278Z,15.60
2017-09-12T00:44:11.511Z,15.50
2017-09-12T00:46:39.019Z,15.50
2017-09-12T00:49:07.259Z,15.60
2017-09-12T00:51:34.731Z,15.60
2017-09-12T00:54:02.228Z,15.60
2017-09-12T00:56:29.704Z,15.50
2017-09-12T00:58:57.177Z,15.60
2017-09-12T01:01:24.672Z,15.50
2017-09-12T01:03:52.147Z,15.60
2017-09-12T01:06:20.400Z,15.60
2017-09-12T01:08:48.652Z,15.60
2017-09-12T01:11:16.132Z,15.50
2017-09-12T01:13:43.604Z,15.50
2017-09-12T01:16:11.876Z,15.60
2017-09-12T01:18:40.120Z,15.60
2017-09-12T01:21:07.596Z,15.60
2017-09-12T01:23:35.082Z,15.60
2017-09-12T01:26:03.312Z,15.60
2017-09-12T01:28:30.800Z,15.60
2017-09-12T01:30:58.291Z,15.60
2017-09-12T01:33:25.764Z,15.50
2017-09-12T01:35:53.235Z,15.50
2017-09-12T01:38:20.724Z,15.60
2017-09-12T09:06:17.324Z,16.10
2017-09-12T09:08:44.911Z,16.10
2017-09-12T09:11:13.160Z,15.90
2017-09-12T09:13:40.653Z,15.90
2017-09-12T09:16:08.887Z,16.00
2017-09-12T09:18:36.364Z,16.00
2017-09-12T09:21:03.880Z,16.20
2017-09-12T09:23:31.364Z,16.40
2017-09-12T09:25:58.848Z,16.50
2017-09-12T09:28:27.117Z,16.60
2017-09-12T09:30:54.580Z,16.60
2017-09-12T09:33:22.822Z,16.60
2017-09-12T09:35:50.340Z,16.60
2017-09-12T09:38:17.810Z,16.80
2017-09-12T09:40:45.284Z,17.10
2017-09-12T09:43:12.784Z,17.20
2017-09-12T09:45:40.256Z,17.40
2017-09-12T09:48:08.491Z,17.60
2017-09-12T09:50:35.991Z,17.60
2017-09-12T09:53:04.232Z,17.70
2017-09-12T09:55:31.700Z,17.70
2017-09-12T09:57:59.276Z,17.80
2017-09-12T10:00:27.520Z,18.20
2017-09-12T10:02:55.004Z,18.20
2017-09-12T10:05:22.488Z,18.20
2017-09-12T10:07:50.741Z,18.50
2017-09-12T10:10:18.997Z,18.30
2017-09-12T10:12:46.484Z,18.20
2017-09-12T10:15:14.733Z,18.40
2017-09-12T10:17:42.251Z,18.40
2017-09-12T10:20:09.742Z,18.50
2017-09-12T10:22:37.216Z,18.60
2017-09-12T10:25:04.695Z,18.80
2017-09-12T10:27:32.980Z,18.80
2017-09-12T10:30:01.222Z,18.60
2017-09-12T10:32:28.720Z,18.60
2017-09-12T10:34:56.219Z,18.60
2017-09-12T10:37:23.764Z,18.40
2017-09-12T10:39:51.241Z,18.50
2017-09-12T10:42:18.743Z,18.60
2017-09-12T10:44:46.979Z,18.20
2017-09-12T10:47:14.459Z,18.20
2017-09-12T10:49:41.956Z,18.00
2017-09-12T10:52:09.435Z,17.90
2017-09-12T10:54:36.913Z,17.90
2017-09-12T10:57:04.507Z,18.00
2017-09-12T10:59:32.744Z,18.20
2017-09-12T11:02:00.243Z,18.20
2017-09-12T11:04:28.512Z,18.30
2017-09-12T11:06:55.988Z,18.20
2017-09-12T11:09:24.244Z,18.40
2017-09-12T11:11:51.829Z,18.40
2017-09-12T11:14:20.063Z,18.70
2017-09-12T11:16:47.540Z,18.70
2017-09-12T11:19:15.038Z,18.60
2017-09-12T11:21:42.513Z,18.50
2017-09-12T11:24:10.015Z,18.60
2017-09-12T11:26:37.514Z,18.70
2017-09-12T11:29:04.985Z,18.50
2017-09-12T11:31:32.464Z,18.40
2017-09-12T11:33:59.955Z,18.20
2017-09-12T11:36:28.276Z,18.10
2017-09-12T11:38:55.775Z,18.10
2017-09-12T11:41:23.284Z,18.30
2017-09-12T11:43:50.764Z,18.20
2017-09-12T11:46:18.244Z,18.20
2017-09-12T11:48:45.735Z,18.20
2017-09-12T11:51:13.974Z,18.10
2017-09-12T11:53:41.448Z,18.10
2017-09-12T11:56:08.946Z,18.10
2017-09-12T11:58:36.415Z,18.10
2017-09-12T12:01:03.892Z,18.40
2017-09-12T12:03:31.383Z,18.50
2017-09-12T12:05:58.864Z,18.60
2017-09-12T12:08:26.351Z,18.80
2017-09-12T12:10:53.887Z,18.90
2017-09-12T12:13:21.392Z,19.10
2017-09-12T12:15:48.876Z,19.30
2017-09-12T12:18:16.363Z,19.50
2017-09-12T12:20:43.851Z,19.50
2017-09-12T12:23:11.321Z,19.70
2017-09-12T12:25:38.811Z,19.70
2017-09-12T12:28:07.060Z,19.60
2017-09-12T12:30:34.531Z,19.60
2017-09-12T12:33:02.025Z,19.70
2017-09-12T12:35:30.255Z,19.80
2017-09-12T12:37:57.737Z,19.80
2017-09-12T12:40:25.224Z,19.90
2017-09-12T12:42:52.704Z,19.80
2017-09-12T12:45:20.175Z,19.90
2017-09-12T12:47:47.676Z,20.20
2017-09-12T12:50:15.922Z,20.80
2017-09-12T12:52:43.399Z,20.70
2017-09-12T12:55:10.891Z,20.80
2017-09-12T12:57:38.371Z,20.80
2017-09-12T13:00:05.859Z,20.60
2017-09-12T13:02:33.352Z,20.30
2017-09-12T13:05:01.593Z,20.90
2017-09-12T13:07:29.069Z,20.90
2017-09-12T13:09:56.805Z,20.60
2017-09-12T13:12:24.279Z,20.20
2017-09-12T13:14:51.753Z,20.00
2017-09-12T13:17:20.013Z,19.70
2017-09-12T13:19:47.488Z,19.70
2017-09-12T13:22:14.965Z,19.70
2017-09-12T13:24:43.227Z,19.30
2017-09-12T13:27:11.472Z,18.40
2017-09-12T13:29:38.941Z,18.40
2017-09-12T13:32:06.428Z,18.10
2017-09-12T13:34:34.731Z,17.60
2017-09-12T13:37:02.208Z,17.60
2017-09-12T13:39:29.726Z,17.20
2017-09-12T13:41:57.983Z,15.30
2017-09-12T13:44:26.301Z,15.00
2017-09-12T13:46:53.820Z,15.00
2017-09-12T13:49:21.347Z,14.80
2017-09-12T13:51:48.842Z,14.60
2017-09-12T13:54:17.115Z,14.80
2017-09-12T13:56:45.370Z,15.00
2017-09-12T13:59:12.851Z,14.90
2017-09-12T14:01:41.121Z,15.00
2017-09-12T14:04:10.643Z,15.00
2017-09-12T14:06:38.895Z,14.90
2017-09-12T14:09:06.407Z,14.90
2017-09-12T14:11:33.879Z,15.10
2017-09-12T14:14:01.364Z,15.30
2017-09-12T14:16:28.888Z,15.40
2017-09-12T14:18:56.388Z,15.30
2017-09-12T14:21:23.880Z,15.30
2017-09-12T14:23:51.403Z,15.40
2017-09-12T14:26:18.875Z,15.60
2017-09-12T14:28:47.130Z,16.10
2017-09-12T14:31:14.649Z,16.10
2017-09-12T14:33:42.896Z,16.30
2017-09-12T14:36:11.132Z,16.20
2017-09-12T14:38:38.643Z,16.20
2017-09-12T14:41:06.135Z,16.30
2017-09-12T14:43:33.720Z,16.30
2017-09-12T14:46:01.237Z,16.40
2017-09-12T14:48:28.744Z,16.40
2017-09-12T14:50:57.727Z,16.20
2017-09-12T14:53:25.220Z,16.20
2017-09-12T14:55:53.468Z,16.10
2017-09-12T14:58:20.967Z,16.00
2017-09-12T15:00:49.817Z,15.90
2017-09-12T15:03:17.292Z,15.90
2017-09-12T15:05:46.284Z,16.20
2017-09-12T15:08:13.790Z,16.20
2017-09-12T15:10:41.285Z,16.30
2017-09-12T15:13:09.104Z,16.40
2017-09-12T15:15:36.836Z,16.40
2017-09-12T15:18:05.235Z,16.60
2017-09-12T15:20:32.739Z,16.60
2017-09-12T15:23:00.388Z,16.70
2017-09-12T15:25:27.863Z,16.70
2017-09-12T15:27:55.520Z,16.80
2017-09-12T15:30:23.810Z,16.90
2017-09-12T15:32:51.293Z,16.90
2017-09-12T15:35:19.536Z,16.90
2017-09-12T15:37:47.032Z,16.90
2017-09-12T15:40:15.272Z,17.00
2017-09-12T15:42:42.743Z,16.90
2017-09-12T15:45:10.231Z,17.00
2017-09-12T15:47:38.466Z,17.10
2017-09-12T15:50:05.934Z,17.10
2017-09-12T15:52:33.427Z,17.20
2017-09-12T15:55:01.664Z,17.10
2017-09-12T15:57:29.132Z,17.20
2017-09-12T15:59:56.645Z,17.10
2017-09-12T16:02:24.115Z,17.10
2017-09-12T16:04:51.588Z,17.10
2017-09-12T16:07:19.230Z,17.10
2017-09-12T16:09:46.708Z,17.00
2017-09-12T16:12:14.196Z,17.00
2017-09-12T16:14:41.699Z,16.90
2017-09-12T16:17:09.183Z,16.90
2017-09-12T16:19:36.655Z,16.80
2017-09-12T16:22:04.174Z,16.90
2017-09-12T16:24:31.688Z,16.90
2017-09-12T16:26:59.168Z,16.90
2017-09-12T16:29:27.434Z,16.80
2017-09-12T16:31:55.708Z,16.80
2017-09-12T16:34:23.955Z,16.80
2017-09-12T16:36:51.449Z,16.80
2017-09-12T16:39:19.690Z,16.80
2017-09-12T16:41:47.191Z,16.80
2017-09-12T16:44:15.485Z,16.80
2017-09-12T16:46:42.959Z,16.80
2017-09-12T16:49:10.512Z,16.90
2017-09-12T16:51:38.009Z,16.80
2017-09-12T16:54:06.993Z,16.70
2017-09-12T16:56:34.479Z,16.60
2017-09-12T16:59:02.742Z,16.50
2017-09-12T17:01:30.977Z,16.50
2017-09-12T17:03:58.502Z,16.50
2017-09-12T17:06:26.821Z,16.40
2017-09-12T17:08:54.305Z,16.40
2017-09-12T17:11:21.784Z,16.40
2017-09-12T17:13:50.055Z,16.40
2017-09-12T17:16:18.315Z,16.40
2017-09-12T17:18:46.583Z,16.40
2017-09-12T17:21:14.094Z,16.40
2017-09-12T17:23:41.636Z,16.40
2017-09-12T17:26:09.908Z,16.40
2017-09-12T17:28:38.274Z,16.30
2017-09-12T17:31:06.617Z,16.30
2017-09-12T17:33:34.267Z,16.30
2017-09-12T17:36:02.035Z,16.30
2017-09-12T17:38:29.800Z,16.20
2017-09-12T17:40:57.416Z,16.20
2017-09-12T17:43:25.942Z,16.10
2017-09-12T17:45:53.612Z,16.10
2017-09-12T17:48:21.201Z,16.10
2017-09-12T17:50:48.737Z,16.10
2017-09-12T17:53:16.260Z,16.00
2017-09-12T17:55:43.773Z,16.00
2017-09-12T17:58:11.290Z,16.00
2017-09-12T18:00:38.818Z,16.00
2017-09-12T18:03:08.312Z,15.90
2017-09-12T18:05:36.753Z,15.90
2017-09-12T18:08:05.204Z,15.80
2017-09-12T18:10:33.896Z,15.70
2017-09-12T18:13:01.584Z,15.70
2017-09-12T18:15:29.067Z,15.60
2017-09-12T18:17:57.140Z,15.60
2017-09-12T18:20:26.017Z,15.60
2017-09-12T18:22:55.397Z,15.50
2017-09-12T18:25:22.975Z,15.40
2017-09-12T18:27:50.480Z,15.40
2017-09-12T18:30:19.516Z,15.40
2017-09-12T18:32:46.994Z,15.30
2017-09-12T18:35:14.579Z,15.20
2017-09-12T18:37:42.292Z,15.20
2017-09-12T18:40:11.571Z,15.20
2017-09-12T18:42:40.840Z,15.10
2017-09-12T18:45:08.535Z,15.10
2017-09-12T18:47:44.660Z,15.10
2017-09-12T18:50:16.417Z,15.10
2017-09-12T18:52:47.532Z,15.10
2017-09-12T18:55:15.555Z,15.00
2017-09-12T18:57:44.544Z,15.00
2017-09-12T19:00:12.060Z,15.00
2017-09-12T19:02:39.621Z,15.00
2017-09-12T19:05:08.255Z,15.00
2017-09-12T19:07:36.603Z,15.00
2017-09-12T19:10:04.103Z,15.00
2017-09-12T19:12:32.371Z,15.00
2017-09-12T19:15:00.636Z,15.00
2017-09-12T19:17:28.904Z,14.90
2017-09-12T19:19:56.398Z,14.90
2017-09-12T19:22:24.676Z,14.90
2017-09-12T19:24:52.932Z,14.90
2017-09-12T19:27:21.199Z,14.90
2017-09-12T19:29:48.687Z,14.90
2017-09-12T19:32:16.926Z,14.80
2017-09-12T19:34:44.415Z,14.90
2017-09-12T19:37:12.705Z,14.80
2017-09-12T19:39:40.192Z,14.80
2017-09-12T19:42:07.736Z,14.80
2017-09-12T19:44:35.261Z,14.70
2017-09-12T19:47:03.535Z,14.60
2017-09-12T19:49:31.780Z,14.60
2017-09-12T19:51:59.310Z,14.60
2017-09-12T19:54:26.783Z,14.60
2017-09-12T19:56:55.028Z,14.60
2017-09-12T19:59:22.534Z,14.60
2017-09-12T20:01:50.019Z,14.50
2017-09-12T20:04:18.264Z,14.50
2017-09-12T20:06:45.755Z,14.50
2017-09-12T20:09:14.016Z,14.40
2017-09-12T20:11:41.496Z,14.40
2017-09-12T20:14:09.767Z,14.40
2017-09-12T20:16:38.023Z,14.30
2017-09-12T20:19:05.520Z,14.30
2017-09-12T20:21:34.009Z,14.20
2017-09-12T20:24:01.484Z,14.20
2017-09-12T20:26:28.972Z,14.20
2017-09-12T20:28:56.487Z,14.20
2017-09-12T20:31:23.977Z,14.20
2017-09-12T20:33:51.457Z,14.20
2017-09-12T20:36:18.951Z,14.20
2017-09-12T20:38:47.195Z,14.20
2017-09-12T20:41:14.705Z,14.10
2017-09-12T20:43:42.201Z,14.10
2017-09-12T20:46:09.680Z,14.10
2017-09-12T20:48:37.183Z,14.10
2017-09-12T20:51:04.703Z,14.00
2017-09-12T20:53:32.944Z,14.00
2017-09-12T20:56:00.426Z,14.00
2017-09-12T20:58:27.925Z,14.00
2017-09-12T21:00:55.401Z,14.00
2017-09-12T21:03:22.903Z,14.00
2017-09-12T21:05:51.912Z,13.90
2017-09-12T21:08:20.189Z,13.90
2017-09-12T21:10:48.581Z,13.90
2017-09-12T21:13:16.087Z,13.90
2017-09-12T21:15:43.577Z,13.90
2017-09-12T21:18:11.827Z,13.90
2017-09-12T21:20:39.331Z,13.90
2017-09-12T21:23:07.583Z,13.90
2017-09-12T21:25:35.842Z,13.90
2017-09-12T21:28:03.355Z,13.90
2017-09-12T21:30:30.836Z,13.90
2017-09-12T21:32:58.327Z,13.90
2017-09-12T21:35:25.831Z,13.90
2017-09-12T21:37:53.306Z,13.90
2017-09-12T21:40:20.781Z,13.80
2017-09-12T21:42:48.280Z,13.80
2017-09-12T21:45:16.519Z,13.80
2017-09-12T21:47:44.003Z,13.80
2017-09-12T21:50:11.512Z,13.80
2017-09-12T21:52:39.000Z,13.80
2017-09-12T21:55:06.483Z,13.80
2017-09-12T21:57:34.056Z,13.80
2017-09-12T22:00:02.311Z,13.80
2017-09-12T22:02:29.789Z,13.80
2017-09-12T22:04:58.067Z,13.80
2017-09-12T22:07:26.315Z,13.70
2017-09-12T22:09:53.806Z,13.70
2017-09-12T22:12:22.077Z,13.70
2017-09-12T22:14:50.308Z,13.70
2017-09-12T22:17:17.853Z,13.70
2017-09-12T22:19:45.352Z,13.70
2017-09-12T22:22:12.836Z,13.70
2017-09-12T22:24:41.080Z,13.70
2017-09-12T22:27:10.110Z,13.80
2017-09-12T22:29:37.603Z,13.80
2017-09-12T22:32:05.081Z,13.80
2017-09-12T22:34:32.569Z,13.80
2017-09-12T22:37:00.811Z,13.90
2017-09-12T22:39:28.285Z,13.80
2017-09-12T22:41:55.803Z,13.90
2017-09-12T22:44:23.284Z,13.80
2017-09-12T22:46:50.765Z,13.90
2017-09-12T22:49:18.322Z,13.80
2017-09-12T22:51:45.812Z,13.90
2017-09-12T22:54:14.047Z,13.90
2017-09-12T22:56:41.548Z,13.90
2017-09-12T22:59:09.787Z,13.90
2017-09-12T23:01:37.267Z,13.90
2017-09-12T23:04:05.535Z,13.90
2017-09-12T23:06:33.783Z,14.00
2017-09-12T23:09:01.266Z,13.90
2017-09-12T23:11:28.777Z,14.00
2017-09-12T23:13:56.260Z,14.00
2017-09-12T23:16:23.739Z,14.00
2017-09-12T23:18:52.003Z,14.00
2017-09-12T23:21:19.495Z,14.00
2017-09-12T23:23:47.768Z,14.10
2017-09-12T23:26:16.035Z,14.10
2017-09-12T23:28:44.279Z,14.10
2017-09-12T23:31:11.762Z,14.00
2017-09-12T23:33:40.028Z,14.10
2017-09-12T23:36:07.511Z,14.10
2017-09-12T23:38:35.751Z,14.20
2017-09-12T23:41:03.243Z,14.10
2017-09-12T23:43:31.485Z,14.20
2017-09-12T23:45:58.967Z,14.20
2017-09-12T23:48:26.476Z,14.20
2017-09-12T23:50:53.956Z,14.20
2017-09-12T23:53:21.440Z,14.20
2017-09-12T23:55:48.929Z,14.20
2017-09-12T23:58:16.440Z,14.20
